createdAt,value
2023-03-25T00:00:17.614Z,97041.03
2023-03-25T00:04:21.298Z,97043.66
2023-03-25T00:08:27.161Z,97031.13
2023-03-25T00:12:31.110Z,97042.75
2023-03-25T00:16:34.747Z,97033.50
2023-03-25T00:20:40.964Z,97044.97
2023-03-25T00:24:45.987Z,97025.19
2023-03-25T00:28:48.924Z,97041.72
2023-03-25T00:32:53.379Z,97036.13
2023-03-25T00:36:57.151Z,97027.25
2023-03-25T00:41:10.701Z,97028.47
2023-03-25T00:45:13.825Z,97033.69
2023-03-25T00:49:17.364Z,97035.66
2023-03-25T00:53:22.155Z,97032.81
2023-03-25T00:57:26.625Z,97039.66
2023-03-25T01:01:31.371Z,97041.41
2023-03-25T01:05:34.683Z,97042.78
2023-03-25T01:09:38.149Z,97054.63
2023-03-25T01:13:42.548Z,97050.75
2023-03-25T01:17:45.989Z,97055.09
2023-03-25T01:21:49.927Z,97049.81
2023-03-25T01:25:53.484Z,97059.91
2023-03-25T01:29:58.374Z,97055.03
2023-03-25T01:34:01.480Z,97052.16
2023-03-25T01:38:05.151Z,97054.19
2023-03-25T01:42:08.666Z,97053.72
2023-03-25T01:46:15.841Z,97041.31
2023-03-25T01:50:19.507Z,97030.59
2023-03-25T01:54:23.219Z,97032.97
2023-03-25T01:58:29.688Z,97023.88
2023-03-25T02:02:36.821Z,97027.22
2023-03-25T02:06:44.127Z,97039.81
2023-03-25T02:10:48.849Z,97022.22
2023-03-25T02:14:51.877Z,97030.88
2023-03-25T02:19:11.654Z,97023.41
2023-03-25T02:23:42.668Z,97029.16
2023-03-25T02:27:56.371Z,97025.94
2023-03-25T02:32:17.821Z,97025.69
2023-03-25T02:37:04.886Z,97038.72
2023-03-25T02:41:15.480Z,97025.13
2023-03-25T02:45:24.061Z,97038.00
2023-03-25T02:49:31.769Z,97025.56
2023-03-25T02:53:37.557Z,97026.44
2023-03-25T02:57:46.495Z,97034.91
2023-03-25T03:01:51.111Z,97013.84
2023-03-25T03:05:58.187Z,97017.69
2023-03-25T03:10:08.931Z,97014.53
2023-03-25T03:14:32.424Z,97009.31
2023-03-25T03:18:46.465Z,97016.31
2023-03-25T03:22:54.800Z,97016.88
2023-03-25T03:27:04.043Z,97013.94
2023-03-25T03:31:48.303Z,97015.94
2023-03-25T03:35:50.506Z,97025.94
2023-03-25T03:39:57.051Z,97031.09
2023-03-25T03:44:04.121Z,97024.78
2023-03-25T03:48:14.124Z,97025.34
2023-03-25T03:52:22.493Z,97031.28
2023-03-25T03:56:32.644Z,97028.19
2023-03-25T04:00:42.024Z,97025.56
2023-03-25T04:04:46.742Z,97018.56
2023-03-25T04:08:59.254Z,97023.59
2023-03-25T04:13:06.094Z,97034.84
2023-03-25T04:17:09.178Z,97035.22
2023-03-25T04:21:15.670Z,97040.97
2023-03-25T04:25:21.862Z,97042.69
2023-03-25T04:29:26.215Z,97042.41
2023-03-25T04:33:32.295Z,97037.19
2023-03-25T04:37:37.565Z,97035.41
2023-03-25T04:41:40.858Z,97032.25
2023-03-25T04:45:50.160Z,97046.31
2023-03-25T04:49:53.291Z,97041.44
2023-03-25T04:53:58.082Z,97039.38
2023-03-25T04:58:01.214Z,97052.13
2023-03-25T05:02:08.476Z,97065.44
2023-03-25T05:06:11.439Z,97054.28
2023-03-25T05:10:17.238Z,97063.09
2023-03-25T05:14:22.483Z,97066.50
2023-03-25T05:18:25.728Z,97063.34
2023-03-25T05:22:28.603Z,97058.50
2023-03-25T05:26:36.086Z,97051.06
2023-03-25T05:30:41.806Z,97047.56
2023-03-25T05:34:47.521Z,97047.56
2023-03-25T05:38:50.612Z,97054.66
2023-03-25T05:42:56.707Z,97060.69
2023-03-25T05:47:01.380Z,97070.84
2023-03-25T05:51:08.281Z,97072.91
2023-03-25T05:55:15.850Z,97073.19
2023-03-25T05:59:20.842Z,97078.06
2023-03-25T06:03:26.416Z,97093.78
2023-03-25T06:07:30.620Z,97083.50
2023-03-25T06:11:46.726Z,97095.16
2023-03-25T06:15:56.752Z,97103.78
2023-03-25T06:20:00.871Z,97114.03
2023-03-25T06:24:04.396Z,97120.88
2023-03-25T06:28:07.513Z,97135.38
2023-03-25T06:32:15.272Z,97129.44
2023-03-25T06:36:20.390Z,97126.88
2023-03-25T06:40:24.609Z,97142.00
2023-03-25T06:44:27.972Z,97144.44
2023-03-25T06:48:32.700Z,97136.88
2023-03-25T06:52:36.099Z,97123.25
2023-03-25T06:56:39.896Z,97127.75
2023-03-25T07:00:43.203Z,97122.78
2023-03-25T07:04:48.078Z,97123.31
2023-03-25T07:08:51.660Z,97126.06
2023-03-25T07:12:55.004Z,97118.94
2023-03-25T07:16:57.879Z,97121.97
2023-03-25T07:21:02.670Z,97126.31
2023-03-25T07:25:06.191Z,97127.81
2023-03-25T07:29:09.558Z,97126.66
2023-03-25T07:33:12.685Z,97118.72
2023-03-25T07:37:17.925Z,97126.00
2023-03-25T07:41:20.918Z,97128.59
2023-03-25T07:45:24.432Z,97124.34
2023-03-25T07:49:27.684Z,97123.47
2023-03-25T07:53:33.392Z,97134.38
2023-03-25T07:57:36.299Z,97130.31
2023-03-25T08:01:39.799Z,97129.53
2023-03-25T08:05:46.787Z,97141.78
2023-03-25T08:09:52.437Z,97140.75
2023-03-25T08:13:55.330Z,97134.75
2023-03-25T08:17:58.956Z,97142.72
2023-03-25T08:22:01.929Z,97144.97
2023-03-25T08:26:07.388Z,97150.09
2023-03-25T08:30:12.031Z,97145.34
2023-03-25T08:34:15.996Z,97146.50
2023-03-25T08:38:19.042Z,97145.28
2023-03-25T08:42:23.829Z,97147.81
2023-03-25T08:46:27.077Z,97148.72
2023-03-25T08:50:31.942Z,97148.91
2023-03-25T08:54:34.938Z,97145.09
2023-03-25T08:58:39.760Z,97156.78
2023-03-25T09:02:43.555Z,97154.59
2023-03-25T09:07:10.294Z,97147.56
2023-03-25T09:11:10.075Z,97143.56
2023-03-25T09:15:15.144Z,97143.97
2023-03-25T09:19:18.122Z,97137.13
2023-03-25T09:23:21.649Z,97150.03
2023-03-25T09:27:24.563Z,97147.28
2023-03-25T09:31:29.275Z,97133.75
2023-03-25T09:35:33.552Z,97128.69
2023-03-25T09:39:37.207Z,97129.06
2023-03-25T09:43:53.043Z,97120.41
2023-03-25T09:48:03.424Z,97120.38
2023-03-25T09:52:09.500Z,97110.81
2023-03-25T09:56:17.936Z,97113.13
2023-03-25T10:00:25.292Z,97098.59
2023-03-25T10:04:54.936Z,97104.22
2023-03-25T10:09:36.258Z,97093.88
2023-03-25T10:13:49.167Z,97085.56
2023-03-25T10:17:58.882Z,97078.63
2023-03-25T10:22:06.327Z,97074.09
2023-03-25T10:26:14.388Z,97068.06
2023-03-25T10:30:23.620Z,97057.69
2023-03-25T10:34:36.146Z,97050.47
2023-03-25T10:38:43.201Z,97047.84
2023-03-25T10:42:55.725Z,97041.19
2023-03-25T10:47:06.019Z,97026.25
2023-03-25T10:51:12.281Z,97029.59
2023-03-25T10:55:25.714Z,97041.72
2023-03-25T10:59:36.426Z,97039.63
2023-03-25T11:03:43.630Z,97037.41
2023-03-25T11:07:52.010Z,97031.97
2023-03-25T11:11:57.280Z,97039.75
2023-03-25T11:16:04.639Z,97031.81
2023-03-25T11:20:18.185Z,97031.47
2023-03-25T11:24:21.698Z,97016.63
2023-03-25T11:28:37.779Z,97008.69
2023-03-25T11:32:42.266Z,97009.16
2023-03-25T11:36:53.113Z,97000.59
2023-03-25T11:40:58.716Z,97004.97
2023-03-25T11:45:05.120Z,97008.53
2023-03-25T11:49:13.002Z,96996.50
2023-03-25T11:53:18.454Z,97000.91
2023-03-25T11:57:26.101Z,96991.75
2023-03-25T12:01:39.475Z,96993.91
2023-03-25T12:05:43.581Z,96985.63
2023-03-25T12:09:56.558Z,96974.03
2023-03-25T12:14:17.368Z,96981.69
2023-03-25T12:18:40.776Z,96973.97
2023-03-25T12:22:56.757Z,96979.22
2023-03-25T12:27:15.472Z,96973.69
2023-03-25T12:31:34.084Z,96969.81
2023-03-25T12:35:44.903Z,96959.63
2023-03-25T12:40:04.112Z,96957.13
2023-03-25T12:44:11.703Z,96957.22
2023-03-25T12:48:29.738Z,96960.72
2023-03-25T12:52:44.721Z,96955.41
2023-03-25T12:56:59.195Z,96948.22
2023-03-25T13:01:08.512Z,96936.53
2023-03-25T13:05:20.473Z,96955.88
2023-03-25T13:09:29.428Z,96946.81
2023-03-25T13:13:35.702Z,96954.13
2023-03-25T13:17:44.783Z,96947.34
2023-03-25T13:21:52.949Z,96944.41
2023-03-25T13:26:02.411Z,96934.09
2023-03-25T13:30:10.649Z,96938.25
2023-03-25T13:34:25.755Z,96930.06
2023-03-25T13:38:34.700Z,96912.06
2023-03-25T13:42:45.244Z,96903.16
2023-03-25T13:46:51.588Z,96904.84
2023-03-25T13:50:54.840Z,96902.94
2023-03-25T13:55:01.060Z,96903.81
2023-03-25T13:59:33.636Z,96908.78
2023-03-25T14:04:10.756Z,96927.19
2023-03-25T14:08:59.059Z,96932.47
2023-03-25T14:13:05.746Z,96930.34
2023-03-25T14:17:12.301Z,96931.78
2023-03-25T14:21:31.521Z,96914.03
2023-03-25T14:25:39.384Z,96906.34
2023-03-25T14:29:44.692Z,96906.78
2023-03-25T14:34:26.026Z,96906.53
2023-03-25T14:38:58.438Z,96905.06
2023-03-25T14:43:02.176Z,96902.88
2023-03-25T14:47:32.335Z,96909.31
2023-03-25T14:51:46.905Z,96907.16
2023-03-25T14:55:50.250Z,96899.03
2023-03-25T14:59:58.159Z,96873.97
2023-03-25T15:04:15.208Z,96894.16
2023-03-25T15:08:28.163Z,96893.75
2023-03-25T15:12:31.824Z,96895.75
2023-03-25T15:16:37.327Z,96889.00
2023-03-25T15:20:41.446Z,96881.91
2023-03-25T15:24:53.946Z,96894.34
2023-03-25T15:29:24.040Z,96897.69
2023-03-25T15:33:46.426Z,96909.66
2023-03-25T15:38:14.354Z,96906.13
2023-03-25T15:42:53.274Z,96905.94
2023-03-25T15:47:08.120Z,96932.19
2023-03-25T15:51:34.362Z,96933.19
2023-03-25T15:55:41.196Z,96932.00
2023-03-25T15:59:52.807Z,96974.69
2023-03-25T16:04:02.462Z,97004.66
2023-03-25T16:08:11.065Z,97039.88
2023-03-25T16:12:20.412Z,97060.41
2023-03-25T16:16:25.112Z,97058.66
2023-03-25T16:20:32.061Z,97082.94
2023-03-25T16:24:35.681Z,97078.19
2023-03-25T16:28:43.488Z,97082.28
2023-03-25T16:32:48.071Z,97070.38
2023-03-25T16:36:53.656Z,97064.59
2023-03-25T16:41:02.509Z,97073.50
2023-03-25T16:45:09.776Z,97073.84
2023-03-25T16:49:24.536Z,97078.75
2023-03-25T16:53:28.504Z,97074.25
2023-03-25T16:57:36.442Z,97098.44
2023-03-25T17:01:42.907Z,97088.22
2023-03-25T17:06:01.486Z,97101.84
2023-03-25T17:10:06.355Z,97108.78
2023-03-25T17:14:18.661Z,97140.59
2023-03-25T17:18:26.556Z,97137.53
2023-03-25T17:22:36.617Z,97128.94
2023-03-25T17:26:58.473Z,97138.06
2023-03-25T17:31:02.607Z,97127.19
2023-03-25T17:35:07.329Z,97123.28
2023-03-25T17:39:20.116Z,97216.66
2023-03-25T17:43:23.455Z,97182.22
2023-03-25T17:47:26.668Z,97190.56
2023-03-25T17:51:32.237Z,97187.19
2023-03-25T17:55:37.249Z,97182.81
2023-03-25T17:59:40.597Z,97198.56
2023-03-25T18:03:43.926Z,97189.16
2023-03-25T18:07:47.320Z,97184.63
2023-03-25T18:11:54.600Z,97186.06
2023-03-25T18:15:57.729Z,97175.19
2023-03-25T18:20:01.160Z,97197.91
2023-03-25T18:24:04.384Z,97251.53
2023-03-25T18:28:08.973Z,97266.28
2023-03-25T18:32:11.920Z,97279.75
2023-03-25T18:36:15.822Z,97269.97
2023-03-25T18:40:23.551Z,97219.66
2023-03-25T18:44:31.033Z,97198.00
2023-03-25T18:48:34.683Z,97173.81
2023-03-25T18:52:38.472Z,97165.03
2023-03-25T18:56:47.909Z,97165.31
2023-03-25T19:00:54.984Z,97161.09
2023-03-25T19:05:01.091Z,97168.50
2023-03-25T19:09:05.437Z,97201.88
2023-03-25T19:13:08.642Z,97250.03
2023-03-25T19:17:13.347Z,97225.28
2023-03-25T19:21:18.689Z,97208.44
2023-03-25T19:25:22.014Z,97244.63
2023-03-25T19:29:24.984Z,97295.56
2023-03-25T19:33:31.768Z,97290.06
2023-03-25T19:37:36.825Z,97209.44
2023-03-25T19:41:43.204Z,97219.19
2023-03-25T19:45:46.303Z,97213.84
2023-03-25T19:49:52.815Z,97208.44
2023-03-25T19:53:56.092Z,97211.03
2023-03-25T19:57:59.576Z,97209.72
2023-03-25T20:02:02.817Z,97211.44
2023-03-25T20:06:09.824Z,97205.75
2023-03-25T20:10:19.913Z,97199.88
2023-03-25T20:14:23.864Z,97200.78
2023-03-25T20:18:26.900Z,97206.75
2023-03-25T20:22:33.790Z,97208.84
2023-03-25T20:26:36.945Z,97207.53
2023-03-25T20:30:40.802Z,97225.00
2023-03-25T20:34:43.855Z,97226.00
2023-03-25T20:38:57.294Z,97228.88
2023-03-25T20:43:01.533Z,97224.00
2023-03-25T20:47:06.561Z,97218.13
2023-03-25T20:51:11.818Z,97219.41
2023-03-25T20:55:16.637Z,97220.84
2023-03-25T20:59:20.424Z,97213.22
2023-03-25T21:03:24.288Z,97213.22
2023-03-25T21:07:29.316Z,97206.91
2023-03-25T21:11:33.973Z,97207.13
2023-03-25T21:15:39.715Z,97206.72
2023-03-25T21:19:46.685Z,97204.66
2023-03-25T21:23:49.834Z,97199.06
2023-03-25T21:27:54.520Z,97202.53
2023-03-25T21:31:57.838Z,97196.91
2023-03-25T21:36:02.189Z,97201.34
2023-03-25T21:40:08.480Z,97192.63
2023-03-25T21:44:16.552Z,97199.13
2023-03-25T21:48:21.574Z,97196.72
2023-03-25T21:52:26.661Z,97191.41
2023-03-25T21:56:31.481Z,97195.94
2023-03-25T22:00:36.321Z,97196.47
2023-03-25T22:04:39.287Z,97197.25
2023-03-25T22:08:43.422Z,97195.00
2023-03-25T22:12:46.700Z,97202.47
2023-03-25T22:16:51.616Z,97202.78
2023-03-25T22:20:55.802Z,97192.75
2023-03-25T22:24:59.329Z,97188.84
2023-03-25T22:29:04.892Z,97190.78
2023-03-25T22:33:09.657Z,97173.22
2023-03-25T22:37:12.554Z,97178.59
2023-03-25T22:41:17.815Z,97179.56
2023-03-25T22:45:20.918Z,97179.41
2023-03-25T22:49:25.646Z,97171.94
2023-03-25T22:53:29.066Z,97166.41
2023-03-25T22:57:32.240Z,97170.47
2023-03-25T23:01:36.101Z,97158.91
2023-03-25T23:05:41.065Z,97157.81
2023-03-25T23:09:45.192Z,97157.13
2023-03-25T23:13:51.725Z,97157.59
2023-03-25T23:17:54.769Z,97155.47
2023-03-25T23:21:59.958Z,97159.38
2023-03-25T23:26:05.185Z,97167.50
2023-03-25T23:30:10.232Z,97156.22
2023-03-25T23:34:16.042Z,97165.19
2023-03-25T23:38:22.264Z,97163.69
2023-03-25T23:42:35.897Z,97155.19
2023-03-25T23:46:43.698Z,97158.31
2023-03-25T23:50:47.885Z,97161.09
2023-03-25T23:54:52.540Z,97170.84
2023-03-25T23:58:55.594Z,97166.47
